Content
SEND FEEDBACK

Daily
Averages
Monthly
Summary
United Kingdom

LONDON, ENGLAND


Home > Europe > United Kingdom > England
Elevation: 61 meters     Latitude: 51 09N     Longitude: 000 11W

WEATHER
 
SELECT A DAY
Number of Records: 288,761;   Date Range: 7/1/96 - 4/15/14
 
SHARE

PRINT THIS DATA

[ ← Previous Day ]
WEATHER ALMANAC - 21 JULY, 2013
[ Next Day → ]
[ °F ]   °C
Weather ElementAverageHighLow
Temperature20.6 °C26 °C (2:50 pm)16 °C (2:20 am)
Dewpoint15.3 °C17 °C (4:50 pm)12 °C (12:50 am)
Humidity72.8 %88 % (4:20 am)54 % (2:50 pm)
Barometer1019 hPa1022 hPa (12:50 am)1017.3 hPa (5:50 pm)
Wind Speed13.4 km/h18.5 km/h (11:50 am)
Wind Gust40.7 km/h (11:50 am)
Weather ElementAverage
Visibility9.2 km
Wind DirectionENE (57.7 °)

Weather ElementTotal
Precipitation---
Cooling Degree Days2.7 (Base 18.3)
Growing Degree Days11 (Base 10)
Averaged from 47 records on 21 July, 2013
WEATHER CONDITIONS BREAKOUT
WIND DIRECTION BREAKOUT
WEATHER BY HOUR - 21 JULY, 2013
[ °F ]   °C
Local TimeTemperatureDewpointHumidityBarometerVisibilityWind DirectionWind SpeedGust SpeedPrecipitationEventsConditions
12:50 AM17 °C12 °C72 %1022 hPa10 kmNE (50°)13 km/hOvercast
1:20 AM17 °C12 °C72 %1021 hPa10 kmNE (50°)14.8 km/hOvercast
1:50 AM17 °C13 °C77 %1021 hPa10 kmNE (40°)14.8 km/hMostly Cloudy
2:20 AM16 °C12 °C77 %1021 hPa10 kmNE (40°)13 km/hScattered Clouds
2:50 AM16 °C13 °C82 %1021 hPaNE (40°)13 km/hClear
3:20 AM16 °C13 °C82 %1021 hPaNE (50°)11.1 km/hClear
3:50 AM16 °C13 °C82 %1020 hPaNE (40°)11.1 km/hClear
4:20 AM16 °C14 °C88 %1020 hPa10 kmNNE (30°)11.1 km/hScattered Clouds
4:50 AM16 °C14 °C88 %1020 hPa10 kmNE (50°)13 km/hMostly Cloudy
5:20 AM16 °C14 °C88 %1020 hPa10 kmNE (50°)11.1 km/hMostly Cloudy
5:50 AM16 °C14 °C88 %1020 hPa10 kmNNE (30°)11.1 km/hMostly Cloudy
6:20 AM17 °C14 °C82 %1020 hPa10 kmNE (40°)11.1 km/hMostly Cloudy
6:50 AM17 °C15 °C88 %1020 hPa9 kmNE (40°)13 km/hMostly Cloudy
7:20 AM17 °C15 °C88 %1020 hPa8 kmNE (50°)13 km/hMostly Cloudy
7:50 AM18 °C15 °C83 %1020 hPa8 kmENE (70°)16.7 km/hMostly Cloudy
8:20 AM18 °C15 °C83 %1020 hPa6.9 kmNE (40°)16.7 km/hMostly Cloudy
8:50 AM18 °C15 °C83 %1020 hPa8 kmENE (60°)13 km/hMostly Cloudy
9:20 AM18 °C16 °C88 %1020 hPa8 kmNE (50°)14.8 km/hMostly Cloudy
9:50 AM19 °C16 °C83 %1020 hPa9 kmNE (50°)14.8 km/hMostly Cloudy
10:20 AM19 °C16 °C83 %1020 hPa9 kmENE (60°)16.7 km/hMostly Cloudy
10:50 AM20 °C16 °C78 %1020 hPa9 kmNE (40°)16.7 km/hMostly Cloudy
11:20 AM21 °C16 °C73 %1020 hPa10 kmNE (40°)16.7 km/hMostly Cloudy
11:50 AM22 °C16 °C69 %1019 hPa10 kmNE (40°)18.5 km/h40.7 km/hScattered Clouds
12:20 PM23 °C16 °C65 %1019 hPa10 kmENE (60°)14.8 km/hScattered Clouds
12:50 PM24 °C16 °C61 %1019 hPa10 kmENE (60°)14.8 km/hScattered Clouds
1:20 PM24 °C16 °C61 %1019 hPa10 kmENE (60°)14.8 km/hPartly Cloudy
1:50 PM25 °C16 °C57 %1019 hPa10 kmENE (70°)13 km/hPartly Cloudy
2:20 PM25 °C16 °C57 %1019 hPaEast (80°)14.8 km/h33.3 km/hClear
2:50 PM26 °C16 °C54 %1019 hPaEast (90°)13 km/hClear
3:20 PM26 °C16 °C54 %1017.9 hPaENE (70°)14.8 km/hClear
3:50 PM26 °C16 °C54 %1017.9 hPaENE (70°)13 km/hClear
4:20 PM26 °C16 °C54 %1017.9 hPaENE (70°)13 km/hClear
4:50 PM26 °C17 °C57 %1017.9 hPaEast (80°)13 km/hClear
5:20 PM26 °C17 °C57 %1017.9 hPaENE (70°)13 km/hClear
5:50 PM26 °C17 °C57 %1017.3 hPaENE (70°)14.8 km/hClear
6:20 PM26 °C17 °C57 %1017.3 hPaEast (80°)14.8 km/hClear
6:50 PM25 °C17 °C61 %1017.3 hPaENE (70°)14.8 km/hClear
7:20 PM24 °C17 °C65 %1017.3 hPaENE (60°)16.7 km/hClear
7:50 PM24 °C17 °C65 %1017.3 hPaENE (60°)14.8 km/hClear
8:20 PM23 °C16 °C65 %1017.3 hPaENE (70°)14.8 km/hClear
8:50 PM22 °C16 °C69 %1017.3 hPaENE (70°)13 km/hClear
9:20 PM21 °C16 °C73 %1017.9 hPaENE (60°)9.3 km/hClear
9:50 PM20 °C16 °C78 %1017.9 hPaENE (70°)9.3 km/hClear
10:20 PM20 °C16 °C78 %1017.9 hPa9 kmENE (60°)11.1 km/h
10:50 PM19 °C15 °C78 %1017.9 hPaEast (80°)7.4 km/hClear
11:20 PM18 °C15 °C83 %1017.9 hPa6.9 kmENE (60°)9.3 km/h
11:50 PM18 °C15 °C83 %1017.9 hPa8 kmENE (70°)9.3 km/h
Hourly data recorded from EGKK, located 1.67 kilometers away from London, England







STORIES FROM OUR PARTNERS